createdAt,value
2017-11-24T00:01:01.470Z,0
2017-11-24T00:02:03.286Z,0
2017-11-24T00:03:05.125Z,0
2017-11-24T00:04:06.941Z,0
2017-11-24T00:05:08.815Z,0
2017-11-24T00:06:10.694Z,0
2017-11-24T00:07:24.842Z,0
2017-11-24T00:08:26.725Z,0
2017-11-24T00:09:28.606Z,0
2017-11-24T00:10:30.485Z,0
2017-11-24T00:11:32.299Z,0
2017-11-24T00:12:34.113Z,0
2017-11-24T00:13:35.992Z,0
2017-11-24T00:14:37.869Z,0
2017-11-24T00:15:39.755Z,0
2017-11-24T00:16:53.897Z,0
2017-11-24T00:17:55.773Z,0
2017-11-24T00:18:57.658Z,0
2017-11-24T00:19:59.535Z,0
2017-11-24T00:21:01.350Z,0
2017-11-24T00:22:03.164Z,0
2017-11-24T00:23:05.044Z,0
2017-11-24T00:24:06.922Z,0
2017-11-24T00:25:08.802Z,0
2017-11-24T00:26:22.996Z,0
2017-11-24T00:27:24.874Z,0
2017-11-24T00:28:26.754Z,0
2017-11-24T00:29:28.635Z,0
2017-11-24T00:30:30.446Z,0
2017-11-24T00:31:32.258Z,0
2017-11-24T00:32:34.139Z,0
2017-11-24T00:33:36.017Z,0
2017-11-24T00:34:37.895Z,0
2017-11-24T00:35:52.040Z,0
2017-11-24T00:36:53.923Z,0
2017-11-24T00:37:55.807Z,0
2017-11-24T00:38:57.680Z,0
2017-11-24T00:39:59.499Z,0
2017-11-24T00:41:01.313Z,0
2017-11-24T00:42:03.193Z,0
2017-11-24T00:43:05.082Z,0
2017-11-24T00:44:06.952Z,0
2017-11-24T00:45:21.104Z,0
2017-11-24T00:46:22.986Z,0
2017-11-24T00:47:24.868Z,0
2017-11-24T00:48:26.743Z,0
2017-11-24T00:49:28.567Z,0
2017-11-24T00:50:30.378Z,0
2017-11-24T00:51:32.258Z,0
2017-11-24T00:52:34.137Z,0
2017-11-24T00:53:36.016Z,0
2017-11-24T00:54:50.164Z,0
2017-11-24T00:55:52.040Z,0
2017-11-24T00:56:53.923Z,0
2017-11-24T00:57:55.804Z,0
2017-11-24T00:58:57.615Z,0
2017-11-24T00:59:59.430Z,0
2017-11-24T01:01:01.309Z,0
2017-11-24T01:02:03.186Z,0
2017-11-24T01:03:05.071Z,0
2017-11-24T01:04:19.216Z,0
2017-11-24T01:05:21.089Z,0
2017-11-24T01:06:22.975Z,0
2017-11-24T01:07:24.852Z,0
2017-11-24T01:08:26.678Z,0
2017-11-24T01:09:28.492Z,0
2017-11-24T01:10:30.376Z,0
2017-11-24T01:11:32.251Z,0
2017-11-24T01:12:34.132Z,0
2017-11-24T01:13:48.277Z,0
2017-11-24T01:14:50.156Z,0
2017-11-24T01:15:52.069Z,0
2017-11-24T01:16:53.948Z,0
2017-11-24T01:17:55.773Z,0
2017-11-24T01:18:57.576Z,0
2017-11-24T01:19:59.456Z,0
2017-11-24T01:21:01.335Z,0
2017-11-24T01:22:03.220Z,0
2017-11-24T01:23:17.362Z,0
2017-11-24T01:24:19.241Z,0
2017-11-24T01:25:21.122Z,0
2017-11-24T01:26:23.002Z,0
2017-11-24T01:27:24.814Z,0
2017-11-24T01:28:26.627Z,0
2017-11-24T01:29:28.506Z,0
2017-11-24T01:30:30.383Z,0
2017-11-24T01:31:32.261Z,0
2017-11-24T01:32:46.408Z,0
2017-11-24T01:33:48.284Z,0
2017-11-24T01:34:50.168Z,0
2017-11-24T01:35:52.044Z,0
2017-11-24T01:36:53.862Z,0
2017-11-24T01:37:55.672Z,0
2017-11-24T01:38:57.553Z,0
2017-11-24T01:39:59.430Z,0
2017-11-24T01:41:01.316Z,0
2017-11-24T01:42:15.462Z,0
2017-11-24T01:43:17.340Z,0
2017-11-24T01:44:19.220Z,0
2017-11-24T01:45:21.109Z,0
2017-11-24T01:46:22.920Z,0
2017-11-24T01:47:24.734Z,0
2017-11-24T01:48:26.617Z,0
2017-11-24T01:49:28.497Z,0
2017-11-24T01:50:30.378Z,0
2017-11-24T01:51:44.525Z,0
2017-11-24T01:52:46.404Z,0
2017-11-24T01:53:48.285Z,0
2017-11-24T01:54:50.162Z,0
2017-11-24T01:55:51.982Z,0
2017-11-24T01:56:53.799Z,0
2017-11-24T01:57:55.677Z,0
2017-11-24T01:58:57.556Z,0
2017-11-24T01:59:59.442Z,0
2017-11-24T02:01:13.585Z,0
2017-11-24T02:02:15.457Z,0
2017-11-24T02:03:17.345Z,0
2017-11-24T02:04:19.220Z,0
2017-11-24T02:05:21.034Z,0
2017-11-24T02:06:22.845Z,0
2017-11-24T02:07:24.724Z,0
2017-11-24T02:08:26.616Z,0
2017-11-24T02:09:28.491Z,0
2017-11-24T02:10:42.642Z,0
2017-11-24T02:11:44.522Z,0
2017-11-24T02:12:46.405Z,0
2017-11-24T02:13:48.283Z,0
2017-11-24T02:14:50.099Z,0
2017-11-24T02:15:51.912Z,0
2017-11-24T02:16:53.791Z,0
2017-11-24T02:17:55.672Z,0
2017-11-24T02:18:57.551Z,0
2017-11-24T02:20:11.702Z,0
2017-11-24T02:21:13.579Z,0
2017-11-24T02:22:15.460Z,0
2017-11-24T02:23:17.337Z,0
2017-11-24T02:24:19.153Z,0
2017-11-24T02:25:20.967Z,0
2017-11-24T02:26:22.847Z,0
2017-11-24T02:27:24.723Z,0
2017-11-24T02:28:26.623Z,0
2017-11-24T02:29:40.779Z,0
2017-11-24T02:30:42.651Z,0
2017-11-24T02:31:44.530Z,0
2017-11-24T02:32:46.408Z,0
2017-11-24T02:33:48.235Z,0
2017-11-24T02:34:50.058Z,0
2017-11-24T02:35:51.930Z,0
2017-11-24T02:36:53.817Z,0
2017-11-24T02:37:55.692Z,0
2017-11-24T02:39:09.842Z,0
2017-11-24T02:40:11.730Z,0
2017-11-24T02:41:13.598Z,0
2017-11-24T02:42:15.470Z,0
2017-11-24T02:43:17.288Z,0
2017-11-24T02:44:19.103Z,0
2017-11-24T02:45:20.981Z,0
2017-11-24T02:46:22.876Z,0
2017-11-24T02:47:24.771Z,0
2017-11-24T02:48:38.934Z,0
2017-11-24T02:49:40.823Z,0
2017-11-24T02:50:42.717Z,0
2017-11-24T02:51:44.606Z,0
2017-11-24T02:52:46.435Z,0
2017-11-24T02:53:48.263Z,0
2017-11-24T02:54:50.160Z,0
2017-11-24T02:55:52.048Z,0
2017-11-24T02:56:53.941Z,0
2017-11-24T02:58:08.101Z,0
2017-11-24T02:59:09.991Z,0
2017-11-24T03:00:11.879Z,0
2017-11-24T03:01:13.770Z,0
2017-11-24T03:02:15.597Z,0
2017-11-24T03:03:17.422Z,0
2017-11-24T03:04:19.316Z,0
2017-11-24T03:05:21.196Z,0
2017-11-24T03:06:23.079Z,0
2017-11-24T03:07:37.227Z,0
2017-11-24T03:08:39.103Z,0
2017-11-24T03:09:40.980Z,0
2017-11-24T03:10:42.860Z,0
2017-11-24T03:11:44.674Z,0
2017-11-24T03:12:46.489Z,0
2017-11-24T03:13:48.370Z,0
2017-11-24T03:14:50.248Z,0
2017-11-24T03:15:52.127Z,0
2017-11-24T03:17:06.280Z,0
2017-11-24T03:18:08.156Z,0
2017-11-24T03:19:10.034Z,0
2017-11-24T03:20:11.912Z,0
2017-11-24T03:21:13.737Z,0
2017-11-24T03:22:15.550Z,0
2017-11-24T03:23:17.422Z,0
2017-11-24T03:24:19.302Z,0
2017-11-24T03:25:21.185Z,0
2017-11-24T03:26:35.333Z,0
2017-11-24T03:27:37.209Z,0
2017-11-24T03:28:39.085Z,0
2017-11-24T03:29:40.961Z,0
2017-11-24T03:30:42.777Z,0
2017-11-24T03:31:44.591Z,0
2017-11-24T03:32:46.469Z,0
2017-11-24T03:33:48.351Z,0
2017-11-24T03:34:50.231Z,0
2017-11-24T03:36:04.384Z,0
2017-11-24T03:37:06.260Z,0
2017-11-24T03:38:08.137Z,0
2017-11-24T03:39:10.012Z,0
2017-11-24T03:40:11.828Z,0
2017-11-24T03:41:13.642Z,0
2017-11-24T03:42:15.522Z,0
2017-11-24T03:43:17.404Z,0
2017-11-24T03:44:19.244Z,0
2017-11-24T03:45:33.416Z,0
2017-11-24T03:46:35.293Z,0
2017-11-24T03:47:37.170Z,0
2017-11-24T03:48:39.052Z,0
2017-11-24T03:49:40.866Z,0
2017-11-24T03:50:42.681Z,0
2017-11-24T03:51:44.561Z,0
2017-11-24T03:52:46.441Z,0
2017-11-24T03:53:48.321Z,0
2017-11-24T03:55:02.472Z,0
2017-11-24T03:56:04.348Z,0
2017-11-24T03:57:06.225Z,0
2017-11-24T03:58:08.101Z,0
2017-11-24T03:59:09.915Z,0
2017-11-24T04:00:11.730Z,0
2017-11-24T04:01:13.609Z,0
2017-11-24T04:02:15.490Z,0
2017-11-24T04:03:17.371Z,0
2017-11-24T04:04:31.519Z,0
2017-11-24T04:05:33.395Z,0
2017-11-24T04:06:35.272Z,0
2017-11-24T04:07:37.149Z,0
2017-11-24T04:08:38.966Z,0
2017-11-24T04:09:40.784Z,0
2017-11-24T04:10:42.663Z,0
2017-11-24T04:11:44.542Z,0
2017-11-24T04:12:46.424Z,0
2017-11-24T04:14:00.572Z,0
2017-11-24T04:15:02.447Z,0
2017-11-24T04:16:04.323Z,0
2017-11-24T04:17:06.200Z,0
2017-11-24T04:18:08.016Z,0
2017-11-24T04:19:09.831Z,0
2017-11-24T04:20:11.709Z,0
2017-11-24T04:21:13.599Z,0
2017-11-24T04:22:15.476Z,0
2017-11-24T04:23:29.671Z,0
2017-11-24T04:24:31.547Z,0
2017-11-24T04:25:33.426Z,0
2017-11-24T04:26:35.309Z,0
2017-11-24T04:27:37.117Z,0
2017-11-24T04:28:38.931Z,0
2017-11-24T04:29:40.812Z,0
2017-11-24T04:30:42.692Z,0
2017-11-24T04:31:44.572Z,0
2017-11-24T04:32:58.720Z,0
2017-11-24T04:34:00.597Z,0
2017-11-24T04:35:02.477Z,0
2017-11-24T04:36:04.355Z,0
2017-11-24T04:37:06.166Z,0
2017-11-24T04:38:07.982Z,0
2017-11-24T04:39:09.863Z,0
2017-11-24T04:40:11.742Z,0
2017-11-24T04:41:13.623Z,0
2017-11-24T04:42:27.772Z,0
2017-11-24T04:43:29.647Z,0
2017-11-24T04:44:31.523Z,0
2017-11-24T04:45:33.399Z,0
2017-11-24T04:46:35.218Z,0
2017-11-24T04:47:37.030Z,0
2017-11-24T04:48:38.909Z,0
2017-11-24T04:49:40.792Z,0
2017-11-24T04:50:42.716Z,0
2017-11-24T04:51:56.874Z,0
2017-11-24T04:52:58.750Z,0
2017-11-24T04:54:00.628Z,0
2017-11-24T04:55:02.509Z,0
2017-11-24T04:56:04.320Z,0
2017-11-24T04:57:06.135Z,0
2017-11-24T04:58:08.014Z,0
2017-11-24T04:59:09.892Z,0
2017-11-24T05:00:11.770Z,0
2017-11-24T05:01:25.969Z,0
2017-11-24T05:02:27.843Z,0
2017-11-24T05:03:29.745Z,0
2017-11-24T05:04:31.624Z,0
2017-11-24T05:05:33.442Z,0
2017-11-24T05:06:35.257Z,0
2017-11-24T05:07:37.136Z,0
2017-11-24T05:08:39.032Z,0
2017-11-24T05:09:40.898Z,0
2017-11-24T05:10:55.047Z,0
2017-11-24T05:11:56.923Z,0
2017-11-24T05:12:58.808Z,0
2017-11-24T05:14:00.685Z,0
2017-11-24T05:15:02.501Z,0
2017-11-24T05:16:04.315Z,0
2017-11-24T05:17:06.195Z,0
2017-11-24T05:18:08.070Z,0
2017-11-24T05:19:09.951Z,0
2017-11-24T05:20:24.083Z,0
2017-11-24T05:21:25.960Z,0
2017-11-24T05:22:27.837Z,0
2017-11-24T05:23:29.716Z,0
2017-11-24T05:24:31.530Z,0
2017-11-24T05:25:33.346Z,0
2017-11-24T05:26:35.223Z,0
2017-11-24T05:27:37.120Z,0
2017-11-24T05:28:39.001Z,0
2017-11-24T05:29:53.152Z,0
2017-11-24T05:30:55.029Z,0
2017-11-24T05:31:56.907Z,0
2017-11-24T05:32:58.787Z,0
2017-11-24T05:34:00.625Z,0
2017-11-24T05:35:02.440Z,0
2017-11-24T05:36:04.322Z,0
2017-11-24T05:37:06.202Z,0
2017-11-24T05:38:08.083Z,0
2017-11-24T05:39:22.233Z,0
2017-11-24T05:40:24.110Z,0
2017-11-24T05:41:25.992Z,0
2017-11-24T05:42:27.865Z,0
2017-11-24T05:43:29.682Z,0
2017-11-24T05:44:31.495Z,0
2017-11-24T05:45:33.374Z,0
2017-11-24T05:46:35.261Z,0
2017-11-24T05:47:37.136Z,0
2017-11-24T05:48:51.286Z,0
2017-11-24T05:49:53.163Z,0
2017-11-24T05:50:55.041Z,0
2017-11-24T05:51:56.923Z,0
2017-11-24T05:52:58.739Z,0
2017-11-24T05:54:00.558Z,0
2017-11-24T05:55:02.433Z,0
2017-11-24T05:56:04.311Z,0
2017-11-24T05:57:06.193Z,0
2017-11-24T05:58:20.345Z,0
2017-11-24T05:59:22.220Z,0
2017-11-24T06:00:24.100Z,4
2017-11-24T06:01:25.978Z,4
2017-11-24T06:02:27.793Z,4
2017-11-24T06:03:29.607Z,4
2017-11-24T06:04:31.486Z,4
2017-11-24T06:05:33.364Z,8
2017-11-24T06:06:35.245Z,4
2017-11-24T06:07:49.395Z,8
2017-11-24T06:08:51.272Z,8
2017-11-24T06:09:53.156Z,12
2017-11-24T06:10:55.036Z,16
2017-11-24T06:11:56.852Z,16
2017-11-24T06:12:58.669Z,20
2017-11-24T06:14:00.551Z,24
2017-11-24T06:15:02.432Z,24
2017-11-24T06:16:04.315Z,36
2017-11-24T06:17:18.467Z,36
2017-11-24T06:18:20.343Z,48
2017-11-24T06:19:22.224Z,52
2017-11-24T06:20:24.102Z,60
2017-11-24T06:21:25.922Z,72
2017-11-24T06:22:27.735Z,84
2017-11-24T06:23:29.616Z,96
2017-11-24T06:24:31.497Z,112
2017-11-24T06:25:33.380Z,128
2017-11-24T06:26:47.534Z,148
2017-11-24T06:27:49.412Z,168
2017-11-24T06:28:51.292Z,188
2017-11-24T06:29:53.172Z,208
2017-11-24T06:30:54.992Z,228
2017-11-24T06:31:56.808Z,248
2017-11-24T06:32:58.691Z,264
2017-11-24T06:34:00.576Z,284
2017-11-24T06:35:02.457Z,304
2017-11-24T06:36:16.660Z,328
2017-11-24T06:37:18.538Z,356
2017-11-24T06:38:20.419Z,380
2017-11-24T06:39:22.301Z,408
2017-11-24T06:40:24.120Z,436
2017-11-24T06:41:25.938Z,460
2017-11-24T06:42:27.781Z,488
2017-11-24T06:43:29.637Z,512
2017-11-24T06:44:31.459Z,536
2017-11-24T06:45:45.609Z,564
2017-11-24T06:46:47.489Z,588
2017-11-24T06:47:49.373Z,612
2017-11-24T06:48:51.251Z,648
2017-11-24T06:49:53.069Z,688
2017-11-24T06:50:54.887Z,728
2017-11-24T06:51:56.777Z,760
2017-11-24T06:52:58.658Z,796
2017-11-24T06:54:00.537Z,832
2017-11-24T06:55:14.738Z,868
2017-11-24T06:56:16.618Z,900
2017-11-24T06:57:18.500Z,928
2017-11-24T06:58:20.381Z,964
2017-11-24T06:59:22.200Z,1000
2017-11-24T07:00:24.021Z,1040
2017-11-24T07:01:25.902Z,1084
2017-11-24T07:02:27.790Z,1128
2017-11-24T07:03:29.675Z,1168
2017-11-24T07:04:43.829Z,1228
2017-11-24T07:05:45.714Z,1276
2017-11-24T07:06:47.594Z,1328
2017-11-24T07:07:49.471Z,1368
2017-11-24T07:08:51.289Z,1404
2017-11-24T07:09:53.111Z,1456
2017-11-24T07:10:54.993Z,1504
2017-11-24T07:11:56.873Z,1560
2017-11-24T07:12:58.757Z,1612
2017-11-24T07:14:12.914Z,1640
2017-11-24T07:15:14.797Z,1676
2017-11-24T07:16:16.675Z,1736
2017-11-24T07:17:18.556Z,1772
2017-11-24T07:18:20.378Z,1804
2017-11-24T07:19:22.209Z,1908
2017-11-24T07:20:24.075Z,1960
2017-11-24T07:21:25.962Z,1928
2017-11-24T07:22:27.842Z,1912
2017-11-24T07:23:42.004Z,1912
2017-11-24T07:24:43.883Z,1932
2017-11-24T07:25:45.765Z,1956
2017-11-24T07:26:47.649Z,1964
2017-11-24T07:27:49.468Z,2008
2017-11-24T07:28:51.285Z,2176
2017-11-24T07:29:53.108Z,2344
2017-11-24T07:30:54.929Z,2480
2017-11-24T07:31:56.753Z,2592
2017-11-24T07:33:10.906Z,2640
2017-11-24T07:34:12.786Z,2548
2017-11-24T07:35:14.671Z,2432
2017-11-24T07:36:16.553Z,2328
2017-11-24T07:37:18.374Z,2292
2017-11-24T07:38:20.193Z,2324
2017-11-24T07:39:22.080Z,2368
2017-11-24T07:40:23.966Z,2420
2017-11-24T07:41:25.857Z,2456
2017-11-24T07:42:40.009Z,2528
2017-11-24T07:43:41.892Z,2660
2017-11-24T07:44:43.777Z,2904
2017-11-24T07:45:45.659Z,3120
2017-11-24T07:46:47.483Z,3296
2017-11-24T07:47:49.304Z,3364
2017-11-24T07:48:51.189Z,3308
2017-11-24T07:49:53.089Z,3192
2017-11-24T07:50:54.960Z,3056
2017-11-24T07:52:09.125Z,3112
2017-11-24T07:53:11.001Z,3012
2017-11-24T07:54:12.886Z,2948
2017-11-24T07:55:14.768Z,2888
2017-11-24T07:56:16.593Z,2972
2017-11-24T07:57:18.413Z,3024
2017-11-24T07:58:20.297Z,2984
2017-11-24T07:59:22.188Z,2912
2017-11-24T08:00:24.077Z,2848
2017-11-24T08:01:38.232Z,2800
2017-11-24T08:02:40.117Z,2776
2017-11-24T08:03:42.000Z,2744
2017-11-24T08:04:43.883Z,2716
2017-11-24T08:05:45.703Z,2704
2017-11-24T08:06:47.524Z,2716
2017-11-24T08:07:49.407Z,2752
2017-11-24T08:08:51.296Z,2800
2017-11-24T08:09:53.183Z,2852
2017-11-24T08:11:07.338Z,2836
2017-11-24T08:12:09.220Z,2776
2017-11-24T08:13:11.104Z,2716
2017-11-24T08:14:12.988Z,2708
2017-11-24T08:15:14.813Z,2720
2017-11-24T08:16:16.634Z,2776
2017-11-24T08:17:18.517Z,2892
2017-11-24T08:18:20.403Z,2992
2017-11-24T08:19:22.297Z,2992
2017-11-24T08:20:36.448Z,2968
2017-11-24T08:21:38.329Z,2972
2017-11-24T08:22:40.215Z,3024
2017-11-24T08:23:42.099Z,3168
2017-11-24T08:24:43.923Z,3264
2017-11-24T08:25:45.748Z,3292
2017-11-24T08:26:47.631Z,3264
2017-11-24T08:27:49.517Z,3252
2017-11-24T08:28:51.405Z,3200
2017-11-24T08:30:05.560Z,3160
2017-11-24T08:31:07.441Z,3168
2017-11-24T08:32:09.325Z,3220
2017-11-24T08:33:11.210Z,3324
2017-11-24T08:34:13.031Z,3320
2017-11-24T08:35:14.853Z,3344
2017-11-24T08:36:16.733Z,3384
2017-11-24T08:37:18.619Z,3440
2017-11-24T08:38:20.507Z,3500
2017-11-24T08:39:34.661Z,3520
2017-11-24T08:40:36.544Z,3572
2017-11-24T08:41:38.428Z,3592
2017-11-24T08:42:40.313Z,3596
2017-11-24T08:43:42.133Z,3656
2017-11-24T08:44:43.951Z,3752
2017-11-24T08:45:45.848Z,3756
2017-11-24T08:46:47.737Z,3756
2017-11-24T08:47:49.623Z,3748
2017-11-24T08:49:03.780Z,3744
2017-11-24T08:50:05.662Z,3736
2017-11-24T08:51:07.546Z,3736
2017-11-24T08:52:09.430Z,3736
2017-11-24T08:53:11.251Z,3748
2017-11-24T08:54:13.072Z,3756
2017-11-24T08:55:14.958Z,3772
2017-11-24T08:56:16.843Z,3780
2017-11-24T08:57:18.730Z,3792
2017-11-24T08:58:32.887Z,3796
2017-11-24T08:59:34.771Z,3796
2017-11-24T09:00:36.657Z,3788
2017-11-24T09:01:38.540Z,3776
2017-11-24T09:02:40.366Z,3752
2017-11-24T09:03:42.187Z,3724
2017-11-24T09:04:44.071Z,3680
2017-11-24T09:05:45.956Z,3636
2017-11-24T09:06:47.843Z,3592
2017-11-24T09:08:02.000Z,3536
2017-11-24T09:09:03.890Z,3488
2017-11-24T09:10:05.774Z,3448
2017-11-24T09:11:07.652Z,3404
2017-11-24T09:12:09.474Z,3376
2017-11-24T09:13:11.293Z,3344
2017-11-24T09:14:13.178Z,3324
2017-11-24T09:15:15.066Z,3304
2017-11-24T09:16:16.953Z,3288
2017-11-24T09:17:31.110Z,3280
2017-11-24T09:18:32.994Z,3272
2017-11-24T09:19:34.878Z,3272
2017-11-24T09:20:36.765Z,3264
2017-11-24T09:21:38.588Z,3264
2017-11-24T09:22:40.409Z,3264
2017-11-24T09:23:42.292Z,3268
2017-11-24T09:24:44.178Z,3272
2017-11-24T09:25:46.063Z,3284
2017-11-24T09:27:00.220Z,3300
2017-11-24T09:28:02.103Z,3312
2017-11-24T09:29:03.989Z,3328
2017-11-24T09:30:05.872Z,3348
2017-11-24T09:31:07.698Z,3380
2017-11-24T09:32:09.523Z,3412
2017-11-24T09:33:11.405Z,3444
2017-11-24T09:34:13.291Z,3480
2017-11-24T09:35:15.180Z,3516
2017-11-24T09:36:29.337Z,3568
2017-11-24T09:37:31.222Z,3612
2017-11-24T09:38:33.104Z,3668
2017-11-24T09:39:34.990Z,3732
2017-11-24T09:40:36.823Z,3800
2017-11-24T09:41:38.652Z,3860
2017-11-24T09:42:40.545Z,3916
2017-11-24T09:43:42.430Z,3964
2017-11-24T09:44:44.319Z,4008
2017-11-24T09:45:58.471Z,4060
2017-11-24T09:47:00.356Z,4104
2017-11-24T09:48:02.242Z,4160
2017-11-24T09:49:04.128Z,4236
2017-11-24T09:50:05.955Z,4352
2017-11-24T09:51:07.780Z,4496
2017-11-24T09:52:09.661Z,4668
2017-11-24T09:53:11.546Z,4868
2017-11-24T09:54:13.436Z,5072
2017-11-24T09:55:27.593Z,5292
2017-11-24T09:56:29.476Z,5428
2017-11-24T09:57:31.362Z,5544
2017-11-24T09:58:33.248Z,5624
2017-11-24T09:59:35.071Z,5612
2017-11-24T10:00:36.895Z,5448
2017-11-24T10:01:38.782Z,5192
2017-11-24T10:02:40.668Z,4924
2017-11-24T10:03:42.562Z,4628
2017-11-24T10:04:56.710Z,4420
2017-11-24T10:05:58.599Z,4372
2017-11-24T10:07:00.482Z,4308
2017-11-24T10:08:02.369Z,4316
2017-11-24T10:09:04.193Z,4292
2017-11-24T10:10:06.014Z,4160
2017-11-24T10:11:07.901Z,4036
2017-11-24T10:12:09.788Z,4028
2017-11-24T10:13:11.682Z,4200
2017-11-24T10:14:25.895Z,4548
2017-11-24T10:15:27.781Z,4888
2017-11-24T10:16:29.668Z,5296
2017-11-24T10:17:31.556Z,5732
2017-11-24T10:18:33.381Z,6160
2017-11-24T10:19:35.202Z,6532
2017-11-24T10:20:37.088Z,6736
2017-11-24T10:21:38.978Z,6760
2017-11-24T10:22:40.866Z,6624
2017-11-24T10:23:55.074Z,6456
2017-11-24T10:24:56.960Z,6392
2017-11-24T10:25:58.845Z,6372
2017-11-24T10:27:00.738Z,6392
2017-11-24T10:28:02.561Z,6404
2017-11-24T10:29:04.383Z,6308
2017-11-24T10:30:06.273Z,6088
2017-11-24T10:31:08.161Z,5888
2017-11-24T10:32:10.046Z,5728
2017-11-24T10:33:24.205Z,5908
2017-11-24T10:34:26.089Z,5980
2017-11-24T10:35:27.976Z,6136
2017-11-24T10:36:29.862Z,6096
2017-11-24T10:37:31.688Z,5848
2017-11-24T10:38:33.509Z,5520
2017-11-24T10:39:35.395Z,5288
2017-11-24T10:40:37.281Z,5156
2017-11-24T10:41:39.173Z,5168
2017-11-24T10:42:53.331Z,5348
2017-11-24T10:43:55.217Z,5536
2017-11-24T10:44:57.102Z,5888
2017-11-24T10:45:58.993Z,6076
2017-11-24T10:47:00.818Z,6068
2017-11-24T10:48:02.639Z,5956
2017-11-24T10:49:04.528Z,5832
2017-11-24T10:50:06.424Z,5740
2017-11-24T10:51:08.307Z,5748
2017-11-24T10:52:22.468Z,5936
2017-11-24T10:53:24.354Z,6172
2017-11-24T10:54:26.241Z,6380
2017-11-24T10:55:28.129Z,6532
2017-11-24T10:56:29.954Z,6612
2017-11-24T10:57:31.777Z,6648
2017-11-24T10:58:33.665Z,6668
2017-11-24T10:59:35.554Z,6736
2017-11-24T11:00:37.445Z,6944
2017-11-24T11:01:51.603Z,7188
2017-11-24T11:02:53.487Z,7192
2017-11-24T11:03:55.377Z,7128
2017-11-24T11:04:57.259Z,7172
2017-11-24T11:05:59.087Z,7316
2017-11-24T11:07:00.910Z,7480
2017-11-24T11:08:02.800Z,7564
2017-11-24T11:09:04.690Z,7652
2017-11-24T11:10:06.580Z,7796
2017-11-24T11:11:20.739Z,8052
2017-11-24T11:12:22.623Z,8120
2017-11-24T11:13:24.513Z,8040
2017-11-24T11:14:26.401Z,7980
2017-11-24T11:15:28.228Z,7832
2017-11-24T11:16:30.051Z,7660
2017-11-24T11:17:31.953Z,7476
2017-11-24T11:18:33.840Z,7256
2017-11-24T11:19:35.726Z,7156
2017-11-24T11:20:49.889Z,7164
2017-11-24T11:21:51.775Z,7208
2017-11-24T11:22:53.661Z,7304
2017-11-24T11:23:55.548Z,7304
2017-11-24T11:24:57.382Z,7368
2017-11-24T11:25:59.202Z,7308
2017-11-24T11:27:01.100Z,7244
2017-11-24T11:28:03.005Z,7164
2017-11-24T11:29:04.893Z,7164
2017-11-24T11:30:19.056Z,7368
2017-11-24T11:31:20.943Z,7632
2017-11-24T11:32:22.830Z,7884
2017-11-24T11:33:24.716Z,8032
2017-11-24T11:34:26.543Z,7752
2017-11-24T11:35:28.384Z,7280
2017-11-24T11:36:30.275Z,7112
2017-11-24T11:37:32.163Z,7296
2017-11-24T11:38:34.056Z,7456
2017-11-24T11:39:48.215Z,7416
2017-11-24T11:40:50.101Z,7256
2017-11-24T11:41:51.988Z,6920
2017-11-24T11:42:53.876Z,6696
2017-11-24T11:43:55.703Z,6528
2017-11-24T11:44:57.526Z,6376
2017-11-24T11:45:59.415Z,6216
2017-11-24T11:47:01.307Z,6176
2017-11-24T11:48:03.196Z,6316
2017-11-24T11:49:17.415Z,6580
2017-11-24T11:50:19.294Z,6404
2017-11-24T11:51:21.182Z,6224
2017-11-24T11:52:23.070Z,6064
2017-11-24T11:53:24.896Z,5988
2017-11-24T11:54:26.719Z,5800
2017-11-24T11:55:28.606Z,5612
2017-11-24T11:56:30.495Z,5332
2017-11-24T11:57:32.386Z,5056
2017-11-24T11:58:46.531Z,4792
2017-11-24T11:59:48.418Z,4716
2017-11-24T12:00:50.307Z,4748
2017-11-24T12:01:52.193Z,4808
2017-11-24T12:02:54.018Z,4912
2017-11-24T12:03:55.839Z,4964
2017-11-24T12:04:57.725Z,4984
2017-11-24T12:05:59.617Z,5100
2017-11-24T12:07:01.508Z,5316
2017-11-24T12:08:15.716Z,5628
2017-11-24T12:09:17.602Z,5820
2017-11-24T12:10:19.493Z,5984
2017-11-24T12:11:21.377Z,6128
2017-11-24T12:12:23.203Z,6272
2017-11-24T12:13:25.028Z,6440
2017-11-24T12:14:26.912Z,6632
2017-11-24T12:15:28.799Z,6688
2017-11-24T12:16:30.698Z,6696
2017-11-24T12:17:44.909Z,6672
2017-11-24T12:18:46.788Z,6660
2017-11-24T12:19:48.673Z,6572
2017-11-24T12:20:50.561Z,6488
2017-11-24T12:21:52.387Z,6404
2017-11-24T12:22:54.211Z,6240
2017-11-24T12:23:56.097Z,5964
2017-11-24T12:24:57.986Z,5592
2017-11-24T12:25:59.879Z,5204
2017-11-24T12:27:14.037Z,4800
2017-11-24T12:28:15.924Z,4528
2017-11-24T12:29:17.810Z,4304
2017-11-24T12:30:19.697Z,4108
2017-11-24T12:31:21.527Z,3976
2017-11-24T12:32:23.347Z,3876
2017-11-24T12:33:25.236Z,3812
2017-11-24T12:34:27.127Z,3800
2017-11-24T12:35:29.019Z,3808
2017-11-24T12:36:43.178Z,3908
2017-11-24T12:37:45.070Z,4016
2017-11-24T12:38:46.950Z,4168
2017-11-24T12:39:48.839Z,4384
2017-11-24T12:40:50.663Z,4576
2017-11-24T12:41:52.485Z,4676
2017-11-24T12:42:54.371Z,4664
2017-11-24T12:43:56.258Z,4512
2017-11-24T12:44:58.149Z,4424
2017-11-24T12:46:12.310Z,4348
2017-11-24T12:47:14.191Z,4332
2017-11-24T12:48:16.078Z,4312
2017-11-24T12:49:17.965Z,4304
2017-11-24T12:50:19.793Z,4224
2017-11-24T12:51:21.615Z,4160
2017-11-24T12:52:23.503Z,4132
2017-11-24T12:53:25.390Z,4100
2017-11-24T12:54:27.283Z,4072
2017-11-24T12:55:41.442Z,4016
2017-11-24T12:56:43.327Z,3968
2017-11-24T12:57:45.215Z,3920
2017-11-24T12:58:47.102Z,3876
2017-11-24T12:59:48.926Z,3852
2017-11-24T13:00:50.748Z,3820
2017-11-24T13:01:52.637Z,3808
2017-11-24T13:02:54.523Z,3820
2017-11-24T13:03:56.415Z,3844
2017-11-24T13:05:10.628Z,3892
2017-11-24T13:06:12.514Z,3936
2017-11-24T13:07:14.401Z,3976
2017-11-24T13:08:16.290Z,4000
2017-11-24T13:09:18.116Z,4028
2017-11-24T13:10:19.938Z,4048
2017-11-24T13:11:21.831Z,4068
2017-11-24T13:12:23.718Z,4088
2017-11-24T13:13:25.611Z,4104
2017-11-24T13:14:39.771Z,4116
2017-11-24T13:15:41.656Z,4124
2017-11-24T13:16:43.542Z,4128
2017-11-24T13:17:45.428Z,4136
2017-11-24T13:18:47.253Z,4148
2017-11-24T13:19:49.075Z,4152
2017-11-24T13:20:50.961Z,4128
2017-11-24T13:21:52.851Z,4084
2017-11-24T13:22:54.744Z,4044
2017-11-24T13:24:08.950Z,3972
2017-11-24T13:25:10.836Z,3904
2017-11-24T13:26:12.721Z,3824
2017-11-24T13:27:14.608Z,3740
2017-11-24T13:28:16.434Z,3656
2017-11-24T13:29:18.256Z,3580
2017-11-24T13:30:20.151Z,3524
2017-11-24T13:31:22.034Z,3480
2017-11-24T13:32:23.924Z,3456
2017-11-24T13:33:38.083Z,3440
2017-11-24T13:34:39.966Z,3416
2017-11-24T13:35:41.852Z,3396
2017-11-24T13:36:43.738Z,3368
2017-11-24T13:37:45.565Z,3340
2017-11-24T13:38:47.388Z,3312
2017-11-24T13:39:49.275Z,3300
2017-11-24T13:40:51.160Z,3284
2017-11-24T13:41:53.048Z,3268
2017-11-24T13:43:07.205Z,3236
2017-11-24T13:44:09.089Z,3208
2017-11-24T13:45:10.978Z,3176
2017-11-24T13:46:12.866Z,3132
2017-11-24T13:47:14.694Z,3080
2017-11-24T13:48:16.517Z,3016
2017-11-24T13:49:18.683Z,2944
2017-11-24T13:50:20.568Z,2876
2017-11-24T13:51:22.455Z,2808
2017-11-24T13:52:36.615Z,2732
2017-11-24T13:53:38.518Z,2676
2017-11-24T13:54:40.463Z,2628
2017-11-24T13:55:42.363Z,2584
2017-11-24T13:56:44.188Z,2544
2017-11-24T13:57:46.018Z,2508
2017-11-24T13:58:47.921Z,2476
2017-11-24T13:59:49.813Z,2440
2017-11-24T14:00:51.702Z,2408
2017-11-24T14:02:05.911Z,2352
2017-11-24T14:03:07.797Z,2300
2017-11-24T14:04:09.690Z,2256
2017-11-24T14:05:11.569Z,2204
2017-11-24T14:06:13.392Z,2140
2017-11-24T14:07:15.215Z,2060
2017-11-24T14:08:17.101Z,1976
2017-11-24T14:09:18.988Z,1900
2017-11-24T14:10:20.878Z,1828
2017-11-24T14:11:35.034Z,1764
2017-11-24T14:12:36.921Z,1716
2017-11-24T14:13:38.811Z,1676
2017-11-24T14:14:40.709Z,1640
2017-11-24T14:15:42.536Z,1588
2017-11-24T14:16:44.358Z,1536
2017-11-24T14:17:46.283Z,1484
2017-11-24T14:18:48.179Z,1444
2017-11-24T14:19:50.068Z,1408
2017-11-24T14:21:04.224Z,1372
2017-11-24T14:22:06.424Z,1352
2017-11-24T14:23:08.331Z,1332
2017-11-24T14:24:10.225Z,1308
2017-11-24T14:25:12.038Z,1272
2017-11-24T14:26:13.870Z,1244
2017-11-24T14:27:15.765Z,1216
2017-11-24T14:28:17.645Z,1184
2017-11-24T14:29:19.531Z,1156
2017-11-24T14:30:33.691Z,1120
2017-11-24T14:31:35.578Z,1084
2017-11-24T14:32:37.505Z,1048
2017-11-24T14:33:39.360Z,1004
2017-11-24T14:34:41.206Z,964
2017-11-24T14:35:43.029Z,904
2017-11-24T14:36:44.917Z,848
2017-11-24T14:37:46.806Z,820
2017-11-24T14:38:48.693Z,796
2017-11-24T14:40:02.929Z,760
2017-11-24T14:41:04.836Z,720